createdAt,value
2023-01-01T00:00:25.647Z,1004.6
2023-01-01T00:01:25.571Z,1004.7
2023-01-01T00:02:25.669Z,1004.8
2023-01-01T00:03:25.657Z,1004.7
2023-01-01T00:04:25.566Z,1004.7
2023-01-01T00:05:25.634Z,1004.8
2023-01-01T00:06:25.591Z,1004.8
2023-01-01T00:07:25.568Z,1004.8
2023-01-01T00:08:25.556Z,1004.7
2023-01-01T00:09:25.567Z,1004.7
2023-01-01T00:10:25.584Z,1004.8
2023-01-01T00:11:25.588Z,1004.8
2023-01-01T00:12:25.580Z,1004.8
2023-01-01T00:13:25.568Z,1004.8
2023-01-01T00:14:25.572Z,1004.8
2023-01-01T00:15:25.572Z,1004.8
2023-01-01T00:16:25.617Z,1004.7
2023-01-01T00:17:25.612Z,1004.8
2023-01-01T00:18:25.568Z,1004.7
2023-01-01T00:19:25.597Z,1004.8
2023-01-01T00:20:29.942Z,1004.7
2023-01-01T00:21:25.566Z,1004.8
2023-01-01T00:22:53.211Z,1004.7
2023-01-01T00:23:25.565Z,1004.8
2023-01-01T00:24:25.570Z,1004.8
2023-01-01T00:25:25.588Z,1004.8
2023-01-01T00:26:29.536Z,1004.7
2023-01-01T00:27:25.579Z,1004.8
2023-01-01T00:28:25.565Z,1004.8
2023-01-01T00:29:25.565Z,1004.8
2023-01-01T00:30:25.566Z,1004.7
2023-01-01T00:31:25.610Z,1004.7
2023-01-01T00:32:25.581Z,1004.6
2023-01-01T00:33:25.575Z,1004.7
2023-01-01T00:34:25.616Z,1004.7
2023-01-01T00:35:25.622Z,1004.7
2023-01-01T00:36:25.568Z,1004.8
2023-01-01T00:37:25.567Z,1004.7
2023-01-01T00:38:25.568Z,1004.7
2023-01-01T00:39:25.570Z,1004.7
2023-01-01T00:40:25.584Z,1004.7
2023-01-01T00:41:25.571Z,1004.7
2023-01-01T00:42:25.565Z,1004.7
2023-01-01T00:43:25.566Z,1004.8
2023-01-01T00:44:25.574Z,1004.8
2023-01-01T00:45:25.563Z,1004.8
2023-01-01T00:46:25.702Z,1004.8
2023-01-01T00:47:25.584Z,1004.9
2023-01-01T00:48:25.570Z,1004.8
2023-01-01T00:49:25.569Z,1004.8
2023-01-01T00:50:25.576Z,1004.9
2023-01-01T00:51:25.569Z,1004.9
2023-01-01T00:52:25.643Z,1004.8
2023-01-01T00:53:25.565Z,1004.8
2023-01-01T00:54:25.827Z,1004.8
2023-01-01T00:55:25.581Z,1004.7
2023-01-01T00:56:25.579Z,1004.7
2023-01-01T00:57:25.587Z,1004.7
2023-01-01T00:58:25.577Z,1004.7
2023-01-01T00:59:28.912Z,1004.7
2023-01-01T01:00:25.584Z,1004.7
2023-01-01T01:01:25.697Z,1004.7
2023-01-01T01:02:25.884Z,1004.8
2023-01-01T01:03:25.569Z,1004.8
2023-01-01T01:04:25.581Z,1004.8
2023-01-01T01:05:25.576Z,1004.8
2023-01-01T01:06:25.630Z,1004.7
2023-01-01T01:07:25.581Z,1004.9
2023-01-01T01:09:25.639Z,1004.8
2023-01-01T01:10:25.580Z,1004.7
2023-01-01T01:11:25.581Z,1004.7
2023-01-01T01:12:25.572Z,1004.7
2023-01-01T01:13:25.599Z,1004.6
2023-01-01T01:14:25.591Z,1004.7
2023-01-01T01:15:25.613Z,1004.7
2023-01-01T01:16:25.631Z,1004.7
2023-01-01T01:17:25.577Z,1004.7
2023-01-01T01:18:25.610Z,1004.9
2023-01-01T01:19:25.604Z,1004.8
2023-01-01T01:20:25.581Z,1004.7
2023-01-01T01:21:25.578Z,1004.8
2023-01-01T01:22:28.672Z,1004.8
2023-01-01T01:23:25.571Z,1004.8
2023-01-01T01:24:25.577Z,1004.9
2023-01-01T01:25:25.590Z,1004.9
2023-01-01T01:26:25.644Z,1004.8
2023-01-01T01:27:25.597Z,1004.8
2023-01-01T01:28:25.587Z,1004.8
2023-01-01T01:29:25.584Z,1004.8
2023-01-01T01:30:25.588Z,1004.8
2023-01-01T01:31:25.578Z,1004.8
2023-01-01T01:32:25.578Z,1004.9
2023-01-01T01:33:25.607Z,1004.9
2023-01-01T01:34:27.906Z,1005
2023-01-01T01:35:25.575Z,1004.9
2023-01-01T01:36:25.572Z,1005
2023-01-01T01:37:25.584Z,1004.9
2023-01-01T01:38:25.578Z,1004.9
2023-01-01T01:39:25.594Z,1004.8
2023-01-01T01:40:25.589Z,1005
2023-01-01T01:41:27.857Z,1004.9
2023-01-01T01:42:25.579Z,1004.9
2023-01-01T01:43:25.580Z,1005
2023-01-01T01:44:25.581Z,1005
2023-01-01T01:45:31.294Z,1005
2023-01-01T01:46:25.624Z,1005
2023-01-01T01:47:25.580Z,1005
2023-01-01T01:48:25.577Z,1005
2023-01-01T01:49:25.590Z,1005
2023-01-01T01:50:25.589Z,1005.1
2023-01-01T01:51:25.665Z,1005
2023-01-01T01:52:25.589Z,1005
2023-01-01T01:53:25.589Z,1005
2023-01-01T01:54:25.609Z,1004.9
2023-01-01T01:55:25.587Z,1005.1
2023-01-01T01:56:25.644Z,1005.1
2023-01-01T01:57:25.582Z,1005.2
2023-01-01T01:58:25.621Z,1005.2
2023-01-01T01:59:25.587Z,1005.2
2023-01-01T02:00:25.595Z,1005.3
2023-01-01T02:01:25.712Z,1005.2
2023-01-01T02:02:25.749Z,1005.2
2023-01-01T02:03:25.651Z,1005.1
2023-01-01T02:04:25.621Z,1005.3
2023-01-01T02:05:25.582Z,1005.2
2023-01-01T02:06:25.588Z,1005.3
2023-01-01T02:07:25.585Z,1005.2
2023-01-01T02:09:25.606Z,1005.2
2023-01-01T02:10:25.587Z,1005.1
2023-01-01T02:11:25.588Z,1005.2
2023-01-01T02:12:25.582Z,1005.1
2023-01-01T02:13:25.603Z,1005.2
2023-01-01T02:14:25.588Z,1005.2
2023-01-01T02:15:25.584Z,1005.1
2023-01-01T02:16:25.666Z,1005.2
2023-01-01T02:17:25.585Z,1005
2023-01-01T02:18:25.600Z,1005.2
2023-01-01T02:19:25.590Z,1005.1
2023-01-01T02:20:25.588Z,1005.1
2023-01-01T02:21:25.589Z,1005.1
2023-01-01T02:22:25.582Z,1005
2023-01-01T02:23:25.608Z,1005.1
2023-01-01T02:24:25.604Z,1005.1
2023-01-01T02:25:25.595Z,1005.1
2023-01-01T02:26:25.580Z,1005.1
2023-01-01T02:27:25.584Z,1005.1
2023-01-01T02:28:25.696Z,1005.1
2023-01-01T02:29:25.593Z,1005.1
2023-01-01T02:30:25.592Z,1005.1
2023-01-01T02:31:25.616Z,1005.1
2023-01-01T02:32:25.592Z,1005.1
2023-01-01T02:33:25.629Z,1005.1
2023-01-01T02:34:25.591Z,1005.2
2023-01-01T02:35:25.614Z,1005.2
2023-01-01T02:36:25.615Z,1005.3
2023-01-01T02:37:25.589Z,1005.2
2023-01-01T02:38:25.592Z,1005.3
2023-01-01T02:39:25.591Z,1005.3
2023-01-01T02:40:25.597Z,1005.3
2023-01-01T02:41:25.595Z,1005.3
2023-01-01T02:42:25.599Z,1005.3
2023-01-01T02:43:25.592Z,1005.2
2023-01-01T02:46:25.594Z,1005.2
2023-01-01T03:21:25.598Z,1005.4
2023-01-01T04:24:25.862Z,1005.9
2023-01-01T04:27:26.251Z,1006
2023-01-01T05:32:25.618Z,1006.1
2023-01-01T05:34:25.689Z,1006.2
2023-01-01T05:35:26.663Z,1006.2
2023-01-01T05:36:25.615Z,1006.4
2023-01-01T05:37:25.619Z,1006.4
2023-01-01T05:38:25.616Z,1006.5
2023-01-01T05:39:25.619Z,1006.4
2023-01-01T05:40:25.622Z,1006.5
2023-01-01T05:41:25.673Z,1006.5
2023-01-01T05:42:25.623Z,1006.5
2023-01-01T05:43:25.646Z,1006.4
2023-01-01T05:44:25.635Z,1006.4
2023-01-01T05:45:25.620Z,1006.4
2023-01-01T05:46:25.632Z,1006.5
2023-01-01T05:47:29.640Z,1006.4
2023-01-01T05:48:25.630Z,1006.5
2023-01-01T05:49:25.629Z,1006.5
2023-01-01T05:50:25.657Z,1006.6
2023-01-01T05:51:25.626Z,1006.5
2023-01-01T05:52:27.010Z,1006.6
2023-01-01T05:53:25.625Z,1006.5
2023-01-01T05:54:25.622Z,1006.6
2023-01-01T13:58:19.619Z,1010.4
2023-01-01T22:19:19.630Z,1007.1
